Time;durP1;ratioP1;P1;durP2;ratioP2;P2;SDS_P1;SDS_P2;PMS_P1;PMS_P2;Temp;Humidity;BMP_temperature;BMP_pressure;BME280_temperature;BME280_humidity;BME280_pressure;Samples;Min_cycle;Max_cycle;Signal;HPM_P1;HPM_P2
2022/08/13 00:01:51;;;;;;;3.50;2.50;;;;;;;;;;5134191;27;20442;-65
2022/08/13 00:04:18;;;;;;;3.80;2.47;;;;;;;;;;5134570;27;20436;-65
2022/08/13 00:09:41;;;;;;;3.10;2.50;;;;;;;;;;5085509;27;20422;-64
2022/08/13 00:14:59;;;;;;;3.70;2.67;;;;;;;;;;5134114;28;20536;-65
2022/08/13 00:17:26;;;;;;;3.20;2.60;;;;;;;;;;5134385;28;20535;-65
2022/08/13 00:19:54;;;;;;;3.13;2.83;;;;;;;;;;5134163;28;20441;-65
2022/08/13 00:22:25;;;;;;;2.33;2.00;;;;;;;;;;5134403;27;20497;-64
2022/08/13 00:24:52;;;;;;;3.80;2.57;;;;;;;;;;5134497;28;20508;-65
2022/08/13 00:27:22;;;;;;;2.23;2.13;;;;;;;;;;5133968;28;20556;-65
2022/08/13 00:29:49;;;;;;;11.10;2.40;;;;;;;;;;5134366;28;20467;-65
2022/08/13 00:32:21;;;;;;;6.03;2.57;;;;;;;;;;5134241;28;20441;-65
2022/08/13 00:34:49;;;;;;;5.17;2.90;;;;;;;;;;5134338;28;20881;-65
2022/08/13 00:37:16;;;;;;;5.57;2.80;;;;;;;;;;5134532;28;20803;-65
2022/08/13 00:39:45;;;;;;;6.70;2.93;;;;;;;;;;5134317;28;20443;-64
2022/08/13 00:42:13;;;;;;;3.67;2.80;;;;;;;;;;5134498;28;20437;-64
2022/08/13 00:44:40;;;;;;;3.00;2.70;;;;;;;;;;5134088;28;20445;-64
2022/08/13 00:49:52;;;;;;;3.00;2.47;;;;;;;;;;5134030;28;20538;-63
2022/08/13 00:52:20;;;;;;;2.87;2.50;;;;;;;;;;5135851;27;20532;-64
2022/08/13 00:54:51;;;;;;;3.10;2.80;;;;;;;;;;5138015;27;20562;-64
2022/08/13 00:57:18;;;;;;;2.93;2.70;;;;;;;;;;5138521;27;20436;-64
2022/08/13 00:59:46;;;;;;;5.03;2.73;;;;;;;;;;5137970;27;20538;-64
2022/08/13 01:02:15;;;;;;;2.70;2.50;;;;;;;;;;5138008;27;20476;-64
2022/08/13 01:04:43;;;;;;;2.73;2.53;;;;;;;;;;5137849;27;20528;-64
2022/08/13 01:07:10;;;;;;;2.60;2.20;;;;;;;;;;5137982;27;20468;-64
2022/08/13 01:09:38;;;;;;;5.33;2.67;;;;;;;;;;5137800;27;20448;-65
2022/08/13 01:12:09;;;;;;;5.07;2.53;;;;;;;;;;5137503;27;20456;-64
2022/08/13 01:14:37;;;;;;;6.90;2.03;;;;;;;;;;5137420;27;20483;-64
2022/08/13 01:17:05;;;;;;;7.00;3.20;;;;;;;;;;5137719;27;20451;-64
2022/08/13 01:19:34;;;;;;;2.80;2.60;;;;;;;;;;5137450;27;20942;-64
2022/08/13 01:22:03;;;;;;;2.90;2.70;;;;;;;;;;5137891;27;20523;-64
2022/08/13 01:24:31;;;;;;;3.83;2.90;;;;;;;;;;5137439;27;20451;-65
2022/08/13 01:26:59;;;;;;;7.33;2.90;;;;;;;;;;5137786;27;20525;-64
2022/08/13 01:29:27;;;;;;;8.10;2.27;;;;;;;;;;5137041;27;20447;-64
2022/08/13 01:31:55;;;;;;;5.67;2.70;;;;;;;;;;5137472;27;20478;-65
2022/08/13 01:34:25;;;;;;;4.00;2.43;;;;;;;;;;5137115;27;20558;-65
2022/08/13 01:36:53;;;;;;;2.73;2.60;;;;;;;;;;5137101;27;20430;-65
2022/08/13 01:39:22;;;;;;;3.30;2.50;;;;;;;;;;5137191;27;20784;-65
2022/08/13 01:41:49;;;;;;;2.60;2.40;;;;;;;;;;5136905;27;20530;-65
2022/08/13 01:44:18;;;;;;;3.10;2.10;;;;;;;;;;5137250;27;20433;-64
2022/08/13 01:52:16;;;;;;;2.37;2.17;;;;;;;;;;5136946;27;20411;-65
2022/08/13 01:54:45;;;;;;;2.50;2.30;;;;;;;;;;5136851;27;20490;-64
2022/08/13 01:57:12;;;;;;;2.50;2.30;;;;;;;;;;5136611;27;20443;-64
2022/08/13 01:59:41;;;;;;;2.50;2.30;;;;;;;;;;5136833;27;20464;-65
2022/08/13 02:02:10;;;;;;;7.23;2.67;;;;;;;;;;5137268;27;20452;-64
2022/08/13 02:04:38;;;;;;;4.03;2.40;;;;;;;;;;5136827;27;20444;-64
2022/08/13 02:07:08;;;;;;;3.93;2.47;;;;;;;;;;5136494;27;20451;-64
2022/08/13 02:09:35;;;;;;;3.53;2.70;;;;;;;;;;5136929;27;20437;-65
2022/08/13 02:12:05;;;;;;;4.50;2.77;;;;;;;;;;5137065;27;20467;-65
2022/08/13 02:14:32;;;;;;;3.03;2.80;;;;;;;;;;5136271;27;20528;-65
2022/08/13 02:17:00;;;;;;;6.10;2.50;;;;;;;;;;5136551;27;20535;-64
2022/08/13 02:19:27;;;;;;;5.10;2.63;;;;;;;;;;5136387;27;20440;-64
2022/08/13 02:21:55;;;;;;;2.87;2.67;;;;;;;;;;5136773;27;20488;-63
2022/08/13 02:24:23;;;;;;;2.73;2.50;;;;;;;;;;5136012;27;20491;-63
2022/08/13 02:26:50;;;;;;;2.77;2.50;;;;;;;;;;5136351;27;20442;-64
2022/08/13 02:29:19;;;;;;;2.63;2.43;;;;;;;;;;5136233;27;20484;-63
2022/08/13 02:31:46;;;;;;;2.47;2.37;;;;;;;;;;5136248;27;20869;-64
2022/08/13 02:34:13;;;;;;;3.57;2.73;;;;;;;;;;5136040;27;20806;-64
2022/08/13 02:36:41;;;;;;;6.10;2.60;;;;;;;;;;5136176;27;20527;-64
2022/08/13 02:39:09;;;;;;;3.73;2.70;;;;;;;;;;5136017;27;20439;-64
2022/08/13 02:41:40;;;;;;;2.40;2.20;;;;;;;;;;5135988;27;20438;-64
2022/08/13 02:44:10;;;;;;;3.83;2.60;;;;;;;;;;5136030;27;20450;-65
2022/08/13 02:46:38;;;;;;;3.43;2.27;;;;;;;;;;5136006;27;20449;-64
2022/08/13 02:49:06;;;;;;;4.03;2.90;;;;;;;;;;5135812;27;20551;-64
2022/08/13 02:51:33;;;;;;;2.50;2.30;;;;;;;;;;5135823;27;20440;-64
2022/08/13 02:54:01;;;;;;;4.10;2.30;;;;;;;;;;5135997;27;20486;-64
2022/08/13 02:56:28;;;;;;;3.47;2.50;;;;;;;;;;5135446;27;20441;-64
2022/08/13 02:58:56;;;;;;;3.87;3.17;;;;;;;;;;5135718;27;20451;-64
2022/08/13 03:01:24;;;;;;;3.30;2.40;;;;;;;;;;5135670;27;20794;-64
2022/08/13 03:03:53;;;;;;;2.80;2.60;;;;;;;;;;5135688;27;20440;-65
2022/08/13 03:06:20;;;;;;;2.93;2.73;;;;;;;;;;5135474;27;20435;-65
2022/08/13 03:08:49;;;;;;;2.50;2.30;;;;;;;;;;5135970;27;20481;-64
2022/08/13 03:11:16;;;;;;;4.03;2.67;;;;;;;;;;5135410;27;20481;-64
2022/08/13 03:13:45;;;;;;;2.73;2.53;;;;;;;;;;5135029;27;20490;-64
2022/08/13 03:16:13;;;;;;;3.50;2.70;;;;;;;;;;5135027;27;20460;-64
2022/08/13 03:18:41;;;;;;;8.20;2.77;;;;;;;;;;5135500;27;20443;-64
2022/08/13 03:21:09;;;;;;;3.00;2.80;;;;;;;;;;5134831;27;20525;-64
2022/08/13 03:23:37;;;;;;;2.90;2.70;;;;;;;;;;5134964;27;20987;-64
2022/08/13 03:26:04;;;;;;;9.13;2.60;;;;;;;;;;5135012;27;20563;-64
2022/08/13 03:28:31;;;;;;;5.33;2.40;;;;;;;;;;5134869;27;20431;-64
2022/08/13 03:30:58;;;;;;;5.10;2.40;;;;;;;;;;5134670;27;20932;-64
2022/08/13 03:33:27;;;;;;;3.77;2.40;;;;;;;;;;5134708;27;20993;-63
2022/08/13 03:35:55;;;;;;;3.83;2.47;;;;;;;;;;5134965;27;20506;-64
2022/08/13 03:38:23;;;;;;;4.90;2.13;;;;;;;;;;5135304;27;20435;-64
2022/08/13 03:41:11;;;;;;;2.73;2.53;;;;;;;;;;5135276;27;20450;-64
2022/08/13 03:43:38;;;;;;;8.20;2.83;;;;;;;;;;5135463;27;20490;-64
2022/08/13 03:46:05;;;;;;;4.37;2.37;;;;;;;;;;5134826;27;20466;-64
2022/08/13 03:48:33;;;;;;;4.40;2.80;;;;;;;;;;5135454;27;20442;-66
2022/08/13 03:51:01;;;;;;;6.50;2.83;;;;;;;;;;5134373;27;20522;-64
2022/08/13 03:53:30;;;;;;;2.73;2.47;;;;;;;;;;5133449;27;20446;-65
2022/08/13 03:55:58;;;;;;;2.53;2.43;;;;;;;;;;5113360;28;20494;-64
2022/08/13 03:58:26;;;;;;;3.23;2.90;;;;;;;;;;5113368;28;20490;-64
2022/08/13 04:00:54;;;;;;;7.50;2.53;;;;;;;;;;5113170;28;20522;-64
2022/08/13 04:03:23;;;;;;;4.70;2.50;;;;;;;;;;5113729;28;20450;-64
2022/08/13 04:05:52;;;;;;;4.60;4.10;;;;;;;;;;5113537;28;20443;-64
2022/08/13 04:08:20;;;;;;;2.70;2.50;;;;;;;;;;5113322;28;20474;-64
2022/08/13 04:10:49;;;;;;;3.07;2.80;;;;;;;;;;5113499;28;20442;-64
2022/08/13 04:13:19;;;;;;;2.60;2.40;;;;;;;;;;5113378;28;20473;-64
2022/08/13 04:15:46;;;;;;;3.87;3.17;;;;;;;;;;5113174;28;20495;-64
2022/08/13 04:18:14;;;;;;;4.13;2.30;;;;;;;;;;5113848;28;20435;-64
2022/08/13 04:20:42;;;;;;;3.13;2.90;;;;;;;;;;5113172;28;20453;-64
2022/08/13 04:23:14;;;;;;;4.40;2.90;;;;;;;;;;5113898;28;20786;-64
2022/08/13 04:25:42;;;;;;;3.90;3.23;;;;;;;;;;5132831;27;20438;-64
2022/08/13 04:28:11;;;;;;;2.80;2.53;;;;;;;;;;5137431;27;20440;-64
2022/08/13 04:30:41;;;;;;;8.97;2.87;;;;;;;;;;5138240;27;20434;-65
2022/08/13 04:33:09;;;;;;;6.53;3.33;;;;;;;;;;5138401;27;20465;-64
2022/08/13 04:35:36;;;;;;;3.30;2.90;;;;;;;;;;5138439;27;20483;-64
2022/08/13 04:38:05;;;;;;;3.63;3.33;;;;;;;;;;5138348;27;20446;-64
2022/08/13 04:40:33;;;;;;;3.33;3.03;;;;;;;;;;5137921;27;20442;-64
2022/08/13 04:43:00;;;;;;;4.77;3.07;;;;;;;;;;5137963;27;20438;-64
2022/08/13 04:45:29;;;;;;;3.73;2.87;;;;;;;;;;5138519;27;20540;-65
2022/08/13 04:47:59;;;;;;;3.87;2.67;;;;;;;;;;5137936;27;20487;-63
2022/08/13 04:50:26;;;;;;;3.93;3.00;;;;;;;;;;5138367;27;20435;-64
2022/08/13 04:52:53;;;;;;;3.20;2.53;;;;;;;;;;5137681;27;20436;-64
2022/08/13 04:55:20;;;;;;;3.20;3.00;;;;;;;;;;5138129;27;20801;-64
2022/08/13 04:57:48;;;;;;;4.20;2.83;;;;;;;;;;5137833;27;20488;-64
2022/08/13 05:00:16;;;;;;;3.20;2.90;;;;;;;;;;5137820;27;20842;-64
2022/08/13 05:02:45;;;;;;;3.90;2.87;;;;;;;;;;5137981;27;20513;-64
2022/08/13 05:05:12;;;;;;;4.30;2.80;;;;;;;;;;5137933;27;21022;-64
2022/08/13 05:07:39;;;;;;;3.30;2.80;;;;;;;;;;5137848;27;20449;-64
2022/08/13 05:10:07;;;;;;;2.67;2.47;;;;;;;;;;5137523;27;20453;-63
2022/08/13 05:12:35;;;;;;;5.97;3.67;;;;;;;;;;5137469;27;21012;-64
2022/08/13 05:15:02;;;;;;;3.07;2.77;;;;;;;;;;5137673;27;20535;-64
2022/08/13 05:17:30;;;;;;;2.73;2.50;;;;;;;;;;5137760;27;20435;-64
2022/08/13 05:19:59;;;;;;;3.40;3.07;;;;;;;;;;5137329;27;20885;-64
2022/08/13 05:22:28;;;;;;;3.40;3.10;;;;;;;;;;5137271;27;20440;-64
2022/08/13 05:24:55;;;;;;;3.67;3.37;;;;;;;;;;5137567;27;20450;-64
2022/08/13 05:27:22;;;;;;;2.80;2.60;;;;;;;;;;5137325;27;20440;-64
2022/08/13 05:29:51;;;;;;;5.03;3.10;;;;;;;;;;5137568;27;20797;-64
2022/08/13 05:32:18;;;;;;;4.10;3.73;;;;;;;;;;5137258;27;20544;-64
2022/08/13 05:34:48;;;;;;;3.33;2.90;;;;;;;;;;5137267;27;20467;-64
2022/08/13 05:37:17;;;;;;;4.20;2.57;;;;;;;;;;5137368;27;20426;-64
2022/08/13 05:39:45;;;;;;;5.77;3.20;;;;;;;;;;5136914;27;20466;-64
2022/08/13 05:42:13;;;;;;;4.07;2.87;;;;;;;;;;5137250;27;20439;-64
2022/08/13 05:44:41;;;;;;;2.63;2.50;;;;;;;;;;5137157;27;20454;-64
2022/08/13 05:47:09;;;;;;;3.27;2.97;;;;;;;;;;5137329;27;20959;-64
2022/08/13 05:49:37;;;;;;;4.70;3.37;;;;;;;;;;5136950;27;20996;-64
2022/08/13 05:52:05;;;;;;;4.00;3.07;;;;;;;;;;5136924;27;20475;-65
2022/08/13 05:54:34;;;;;;;3.57;2.83;;;;;;;;;;5136376;27;21006;-64
2022/08/13 05:57:02;;;;;;;3.13;2.87;;;;;;;;;;5136575;27;20441;-65
2022/08/13 06:05:02;;;;;;;2.87;2.67;;;;;;;;;;5136681;27;20453;-65
2022/08/13 06:07:29;;;;;;;3.33;3.07;;;;;;;;;;5136638;27;20529;-65
2022/08/13 06:09:57;;;;;;;5.53;2.97;;;;;;;;;;5136903;27;20437;-65
2022/08/13 06:12:25;;;;;;;5.20;2.80;;;;;;;;;;5136484;27;20543;-65
2022/08/13 06:14:52;;;;;;;2.70;2.50;;;;;;;;;;5136140;27;20492;-64
2022/08/13 06:17:20;;;;;;;4.67;3.37;;;;;;;;;;5136549;27;20445;-65
2022/08/13 06:19:47;;;;;;;3.43;2.83;;;;;;;;;;5136206;27;20447;-65
2022/08/13 06:22:17;;;;;;;3.17;2.87;;;;;;;;;;5136368;27;20438;-65
2022/08/13 06:24:47;;;;;;;3.57;2.80;;;;;;;;;;5136387;27;20443;-65
2022/08/13 06:27:15;;;;;;;2.93;2.73;;;;;;;;;;5136280;27;20440;-64
2022/08/13 06:29:45;;;;;;;4.70;2.67;;;;;;;;;;5136764;27;20473;-65
2022/08/13 06:32:12;;;;;;;4.00;2.80;;;;;;;;;;5135943;27;20432;-64
2022/08/13 06:34:41;;;;;;;3.33;3.03;;;;;;;;;;5136074;27;20478;-65
2022/08/13 06:37:08;;;;;;;3.70;3.27;;;;;;;;;;5135336;27;20458;-65
2022/08/13 06:39:37;;;;;;;3.27;2.97;;;;;;;;;;5135636;27;20476;-65
2022/08/13 06:42:06;;;;;;;5.67;3.27;;;;;;;;;;5135435;27;20436;-64
2022/08/13 06:44:35;;;;;;;3.07;2.60;;;;;;;;;;5135949;27;20497;-64
2022/08/13 06:47:03;;;;;;;4.87;2.83;;;;;;;;;;5135548;27;20444;-64
2022/08/13 06:49:31;;;;;;;8.53;3.13;;;;;;;;;;5134482;27;21014;-64
2022/08/13 06:51:58;;;;;;;3.80;2.87;;;;;;;;;;5135675;27;20536;-64
2022/08/13 06:54:26;;;;;;;6.43;2.73;;;;;;;;;;5135661;27;20527;-64
2022/08/13 06:56:54;;;;;;;5.80;3.20;;;;;;;;;;5135543;27;20498;-64
2022/08/13 06:59:23;;;;;;;3.53;3.23;;;;;;;;;;5135591;27;20523;-64
2022/08/13 07:01:53;;;;;;;7.50;2.93;;;;;;;;;;5135341;27;20472;-64
2022/08/13 07:04:21;;;;;;;2.77;2.57;;;;;;;;;;5135214;27;20445;-65
2022/08/13 07:06:49;;;;;;;3.03;2.70;;;;;;;;;;5135429;27;20445;-64
2022/08/13 07:09:18;;;;;;;3.77;3.10;;;;;;;;;;5135376;27;20444;-64
2022/08/13 07:11:45;;;;;;;5.70;2.80;;;;;;;;;;5135374;27;20438;-64
2022/08/13 07:14:14;;;;;;;3.17;2.87;;;;;;;;;;5135017;27;20915;-64
2022/08/13 07:16:42;;;;;;;4.20;3.00;;;;;;;;;;5135410;27;20458;-64
2022/08/13 07:19:11;;;;;;;6.00;3.20;;;;;;;;;;5135289;27;20448;-65
2022/08/13 07:21:39;;;;;;;4.60;2.73;;;;;;;;;;5134987;27;20501;-64
2022/08/13 07:24:08;;;;;;;4.47;2.40;;;;;;;;;;5135372;27;20537;-64
2022/08/13 07:26:36;;;;;;;3.80;2.50;;;;;;;;;;5135135;27;20446;-64
2022/08/13 07:29:04;;;;;;;3.73;2.57;;;;;;;;;;5134732;27;20434;-65
2022/08/13 07:31:33;;;;;;;3.23;2.33;;;;;;;;;;5134796;27;20449;-64
2022/08/13 07:34:04;;;;;;;3.03;2.70;;;;;;;;;;5134974;27;20456;-65
2022/08/13 07:36:35;;;;;;;3.53;2.80;;;;;;;;;;5134415;27;20467;-65
2022/08/13 07:39:07;;;;;;;7.43;3.00;;;;;;;;;;5134740;27;20505;-64
2022/08/13 07:41:35;;;;;;;4.70;3.00;;;;;;;;;;5134397;27;20470;-64
2022/08/13 07:44:03;;;;;;;4.33;2.80;;;;;;;;;;5134605;27;20442;-65
2022/08/13 07:46:30;;;;;;;3.80;2.73;;;;;;;;;;5135590;27;20576;-64
2022/08/13 07:48:59;;;;;;;5.70;4.03;;;;;;;;;;5135137;27;20442;-65
2022/08/13 07:51:26;;;;;;;3.37;2.73;;;;;;;;;;5134984;27;20444;-65
2022/08/13 07:53:56;;;;;;;2.93;2.53;;;;;;;;;;5135217;27;20528;-64
2022/08/13 07:56:25;;;;;;;7.53;3.33;;;;;;;;;;5134941;27;20815;-64
2022/08/13 07:58:55;;;;;;;5.20;2.73;;;;;;;;;;5137395;27;20439;-65
2022/08/13 08:01:22;;;;;;;3.00;2.80;;;;;;;;;;5137653;27;20471;-65
2022/08/13 08:03:52;;;;;;;5.50;3.10;;;;;;;;;;5134934;27;20439;-65
2022/08/13 08:06:19;;;;;;;2.97;2.73;;;;;;;;;;5134543;27;20504;-65
2022/08/13 08:08:47;;;;;;;3.17;2.67;;;;;;;;;;5134390;27;20486;-64
2022/08/13 08:13:56;;;;;;;9.00;3.63;;;;;;;;;;5133477;27;20462;-65
2022/08/13 08:16:24;;;;;;;5.70;3.40;;;;;;;;;;5133937;28;20469;-64
2022/08/13 08:18:51;;;;;;;3.20;2.93;;;;;;;;;;5133854;28;20440;-64
2022/08/13 08:21:23;;;;;;;7.60;2.30;;;;;;;;;;5134159;28;20533;-64
2022/08/13 08:23:51;;;;;;;4.43;2.20;;;;;;;;;;5134388;28;20431;-65
2022/08/13 08:26:20;;;;;;;5.10;2.73;;;;;;;;;;5134010;28;20518;-64
2022/08/13 08:28:47;;;;;;;10.50;3.00;;;;;;;;;;5134031;28;20571;-64
2022/08/13 08:31:15;;;;;;;3.10;2.40;;;;;;;;;;5134297;28;20786;-64
2022/08/13 08:33:43;;;;;;;2.70;2.50;;;;;;;;;;5134120;27;20413;-64
2022/08/13 08:36:11;;;;;;;6.60;2.90;;;;;;;;;;5133621;28;20454;-65
2022/08/13 08:44:20;;;;;;;5.73;3.10;;;;;;;;;;5134250;28;20504;-64
2022/08/13 08:46:49;;;;;;;4.23;2.70;;;;;;;;;;5134038;28;20892;-64
2022/08/13 08:49:18;;;;;;;3.20;2.80;;;;;;;;;;5134644;28;20445;-65
2022/08/13 08:51:45;;;;;;;4.83;3.07;;;;;;;;;;5134150;28;20492;-65
2022/08/13 08:54:13;;;;;;;2.90;2.70;;;;;;;;;;5133528;28;20530;-64
2022/08/13 08:56:42;;;;;;;3.40;2.90;;;;;;;;;;5133520;28;20478;-64
2022/08/13 08:59:13;;;;;;;7.40;2.87;;;;;;;;;;5134085;28;20420;-64
2022/08/13 09:01:40;;;;;;;7.23;2.97;;;;;;;;;;5133679;28;20462;-64
2022/08/13 09:04:08;;;;;;;10.33;7.30;;;;;;;;;;5134031;28;20447;-65
2022/08/13 09:06:36;;;;;;;4.50;3.03;;;;;;;;;;5133981;28;20438;-64
2022/08/13 09:09:06;;;;;;;4.03;3.00;;;;;;;;;;5134027;28;21010;-64
2022/08/13 09:11:34;;;;;;;3.73;2.70;;;;;;;;;;5133412;28;20422;-65
2022/08/13 09:14:08;;;;;;;3.97;2.83;;;;;;;;;;5136433;27;20517;-65
2022/08/13 09:16:37;;;;;;;2.90;2.70;;;;;;;;;;5137719;27;20444;-64
2022/08/13 09:19:05;;;;;;;5.90;2.83;;;;;;;;;;5137979;27;20408;-64
2022/08/13 09:21:32;;;;;;;6.30;2.87;;;;;;;;;;5137231;27;20529;-64
2022/08/13 09:24:01;;;;;;;3.20;2.90;;;;;;;;;;5137515;27;20801;-64
2022/08/13 09:26:28;;;;;;;5.40;3.10;;;;;;;;;;5137079;27;20416;-65
2022/08/13 09:28:57;;;;;;;6.13;2.67;;;;;;;;;;5137485;27;20442;-64
2022/08/13 09:31:26;;;;;;;2.90;2.70;;;;;;;;;;5137333;27;20420;-64
2022/08/13 09:33:54;;;;;;;3.50;3.00;;;;;;;;;;5137377;27;20497;-64
2022/08/13 09:36:24;;;;;;;3.07;2.80;;;;;;;;;;5137350;27;20481;-64
2022/08/13 09:38:52;;;;;;;2.93;2.60;;;;;;;;;;5137370;27;20401;-64
2022/08/13 09:41:22;;;;;;;3.73;2.97;;;;;;;;;;5136840;27;20417;-64
2022/08/13 09:43:49;;;;;;;2.70;2.50;;;;;;;;;;5137502;27;20897;-64
2022/08/13 09:46:19;;;;;;;4.40;3.07;;;;;;;;;;5137303;27;20415;-64
2022/08/13 09:48:50;;;;;;;4.63;3.50;;;;;;;;;;5136800;27;20470;-64
2022/08/13 09:51:17;;;;;;;3.73;3.20;;;;;;;;;;5137426;27;20405;-64
2022/08/13 09:53:46;;;;;;;6.70;3.27;;;;;;;;;;5137122;27;20446;-64
2022/08/13 09:56:14;;;;;;;3.30;2.93;;;;;;;;;;5136684;27;20541;-64
2022/08/13 09:58:41;;;;;;;3.57;2.90;;;;;;;;;;5136695;27;20412;-64
2022/08/13 10:01:09;;;;;;;4.80;3.00;;;;;;;;;;5136777;27;20528;-64
2022/08/13 10:03:38;;;;;;;3.40;2.80;;;;;;;;;;5136430;27;20417;-64
2022/08/13 10:06:08;;;;;;;3.13;2.90;;;;;;;;;;5136437;27;20443;-64
2022/08/13 10:08:35;;;;;;;4.23;2.80;;;;;;;;;;5136499;27;20413;-64
2022/08/13 10:11:03;;;;;;;3.83;3.47;;;;;;;;;;5136177;27;20866;-64
2022/08/13 10:13:30;;;;;;;3.30;3.10;;;;;;;;;;5136182;27;20401;-64
2022/08/13 10:15:58;;;;;;;3.13;2.83;;;;;;;;;;5136354;27;20452;-64
2022/08/13 10:18:28;;;;;;;3.17;2.87;;;;;;;;;;5136278;27;20421;-64
2022/08/13 10:20:56;;;;;;;3.57;3.27;;;;;;;;;;5137091;27;20409;-64
2022/08/13 10:23:24;;;;;;;5.10;3.10;;;;;;;;;;5136254;27;20420;-64
2022/08/13 10:25:52;;;;;;;11.10;3.70;;;;;;;;;;5135886;27;20443;-64
2022/08/13 10:28:21;;;;;;;2.87;2.67;;;;;;;;;;5136545;27;20478;-64
2022/08/13 10:30:48;;;;;;;3.47;2.90;;;;;;;;;;5135825;27;20495;-64
2022/08/13 10:33:16;;;;;;;6.20;3.23;;;;;;;;;;5136474;27;20465;-64
2022/08/13 10:35:44;;;;;;;3.20;2.90;;;;;;;;;;5136337;27;20416;-64
2022/08/13 10:38:15;;;;;;;3.13;2.93;;;;;;;;;;5135774;27;20474;-64
2022/08/13 10:40:44;;;;;;;3.33;3.03;;;;;;;;;;5136334;27;20801;-64
2022/08/13 10:43:12;;;;;;;3.67;3.37;;;;;;;;;;5135640;27;20441;-65
2022/08/13 10:45:42;;;;;;;3.67;3.27;;;;;;;;;;5136581;27;20413;-64
2022/08/13 10:48:11;;;;;;;3.90;3.50;;;;;;;;;;5135479;27;20409;-64
2022/08/13 10:50:38;;;;;;;3.40;3.10;;;;;;;;;;5135075;27;20409;-64
2022/08/13 10:53:06;;;;;;;4.63;3.23;;;;;;;;;;5135097;27;20522;-65
2022/08/13 10:55:35;;;;;;;4.13;3.70;;;;;;;;;;5135417;27;20420;-65
2022/08/13 10:58:13;;;;;;;4.13;3.33;;;;;;;;;;5135712;27;20813;-65
2022/08/13 11:00:40;;;;;;;3.80;3.50;;;;;;;;;;5135360;27;20957;-65
2022/08/13 11:03:07;;;;;;;3.70;3.37;;;;;;;;;;5135431;27;20434;-64
2022/08/13 11:05:35;;;;;;;12.50;3.97;;;;;;;;;;5135412;27;20835;-64
2022/08/13 11:08:02;;;;;;;4.37;3.97;;;;;;;;;;5135203;27;20442;-65
2022/08/13 11:10:29;;;;;;;3.17;2.97;;;;;;;;;;5135224;27;20446;-64
2022/08/13 11:12:57;;;;;;;4.33;3.40;;;;;;;;;;5135329;27;20457;-64
2022/08/13 11:15:25;;;;;;;3.80;3.50;;;;;;;;;;5135270;27;20474;-64
2022/08/13 11:17:53;;;;;;;3.30;3.00;;;;;;;;;;5134861;27;20446;-64
2022/08/13 11:20:24;;;;;;;3.83;3.30;;;;;;;;;;5135323;27;20442;-64
2022/08/13 11:22:52;;;;;;;3.50;3.20;;;;;;;;;;5135062;27;20437;-64
2022/08/13 11:25:21;;;;;;;6.50;3.57;;;;;;;;;;5134622;27;20475;-64
2022/08/13 11:27:49;;;;;;;5.43;3.43;;;;;;;;;;5134704;27;20422;-64
2022/08/13 11:30:17;;;;;;;3.77;3.40;;;;;;;;;;5135362;27;20802;-64
2022/08/13 11:32:45;;;;;;;4.40;4.00;;;;;;;;;;5134952;27;20449;-64
2022/08/13 11:35:12;;;;;;;4.30;3.73;;;;;;;;;;5134643;27;20427;-64
2022/08/13 11:37:40;;;;;;;6.97;3.40;;;;;;;;;;5134480;27;20448;-65
2022/08/13 11:40:07;;;;;;;4.10;3.70;;;;;;;;;;5134952;27;20806;-64
2022/08/13 11:42:34;;;;;;;7.90;4.07;;;;;;;;;;5134700;27;20450;-65
2022/08/13 11:45:02;;;;;;;3.70;3.40;;;;;;;;;;5134068;27;20542;-65
2022/08/13 11:47:29;;;;;;;4.30;3.70;;;;;;;;;;5134330;27;20845;-65
2022/08/13 11:49:57;;;;;;;7.87;3.37;;;;;;;;;;5134549;27;20440;-63
2022/08/13 11:52:24;;;;;;;4.23;3.73;;;;;;;;;;5134910;27;20821;-64
2022/08/13 11:54:52;;;;;;;4.30;3.47;;;;;;;;;;5134403;27;20438;-65
2022/08/13 11:57:19;;;;;;;8.40;3.57;;;;;;;;;;5133803;27;20985;-65
2022/08/13 11:59:46;;;;;;;8.03;3.33;;;;;;;;;;5134670;27;20551;-64
2022/08/13 12:02:14;;;;;;;3.70;3.40;;;;;;;;;;5134575;27;20530;-63
2022/08/13 12:04:41;;;;;;;3.70;3.20;;;;;;;;;;5134118;27;20914;-65
2022/08/13 12:07:10;;;;;;;4.43;4.00;;;;;;;;;;5133778;27;20447;-65
2022/08/13 12:09:37;;;;;;;4.60;3.70;;;;;;;;;;5133729;27;20452;-65
2022/08/13 12:12:04;;;;;;;4.67;4.37;;;;;;;;;;5134494;27;20945;-65
2022/08/13 12:14:32;;;;;;;5.83;4.03;;;;;;;;;;5134028;27;20993;-64
2022/08/13 12:16:59;;;;;;;4.70;4.20;;;;;;;;;;5133801;27;20930;-64
2022/08/13 12:19:26;;;;;;;10.57;4.17;;;;;;;;;;5134323;28;20441;-64
2022/08/13 12:21:53;;;;;;;4.23;3.77;;;;;;;;;;5134540;28;20857;-64
2022/08/13 12:24:22;;;;;;;5.13;4.70;;;;;;;;;;5133481;28;20436;-64
2022/08/13 12:26:49;;;;;;;4.27;3.87;;;;;;;;;;5133858;28;20444;-64
2022/08/13 12:29:16;;;;;;;4.57;4.17;;;;;;;;;;5133609;28;20920;-64
2022/08/13 12:31:43;;;;;;;6.10;4.10;;;;;;;;;;5133670;28;20437;-64
2022/08/13 12:34:11;;;;;;;8.00;4.13;;;;;;;;;;5134142;28;20518;-64
2022/08/13 12:36:38;;;;;;;4.43;3.50;;;;;;;;;;5133580;28;20482;-64
2022/08/13 12:39:05;;;;;;;5.97;3.90;;;;;;;;;;5134159;28;20523;-64
2022/08/13 12:41:34;;;;;;;3.90;3.70;;;;;;;;;;5133881;28;20932;-64
2022/08/13 12:44:01;;;;;;;3.87;3.57;;;;;;;;;;5134152;28;20441;-64
2022/08/13 12:46:28;;;;;;;4.00;3.63;;;;;;;;;;5133702;27;20471;-64
2022/08/13 12:48:55;;;;;;;3.30;3.10;;;;;;;;;;5136158;27;20480;-64
2022/08/13 12:51:22;;;;;;;4.00;3.67;;;;;;;;;;5137730;27;20451;-64
2022/08/13 12:53:50;;;;;;;6.33;3.60;;;;;;;;;;5138445;27;20778;-64
2022/08/13 12:56:17;;;;;;;3.53;3.17;;;;;;;;;;5137870;27;20528;-64
2022/08/13 12:58:45;;;;;;;4.50;4.10;;;;;;;;;;5137487;27;20486;-64
2022/08/13 13:01:13;;;;;;;4.47;4.07;;;;;;;;;;5138050;27;20944;-64
2022/08/13 13:03:40;;;;;;;4.33;3.93;;;;;;;;;;5137717;27;20621;-63
2022/08/13 13:06:07;;;;;;;4.00;3.60;;;;;;;;;;5137661;27;20436;-64
2022/08/13 13:08:34;;;;;;;3.77;3.57;;;;;;;;;;5137459;27;20448;-64
2022/08/13 13:11:03;;;;;;;6.30;3.63;;;;;;;;;;5137843;27;20436;-63
2022/08/13 13:13:32;;;;;;;5.77;4.40;;;;;;;;;;5137647;27;20787;-64
2022/08/13 13:16:00;;;;;;;3.80;3.50;;;;;;;;;;5137791;27;20439;-64
2022/08/13 13:18:28;;;;;;;4.13;3.83;;;;;;;;;;5136846;27;20485;-64
2022/08/13 13:20:56;;;;;;;4.00;3.30;;;;;;;;;;5137523;27;20439;-64
2022/08/13 13:23:24;;;;;;;5.10;3.53;;;;;;;;;;5137119;27;20434;-64
2022/08/13 13:25:52;;;;;;;4.10;3.80;;;;;;;;;;5137061;27;20439;-64
2022/08/13 13:28:20;;;;;;;7.17;3.53;;;;;;;;;;5136635;27;20453;-64
2022/08/13 13:30:48;;;;;;;8.03;3.43;;;;;;;;;;5137538;27;20450;-64
2022/08/13 13:33:18;;;;;;;4.60;4.20;;;;;;;;;;5136832;27;20439;-65
2022/08/13 13:35:46;;;;;;;6.03;4.00;;;;;;;;;;5137491;27;20450;-64
2022/08/13 13:38:17;;;;;;;5.33;4.20;;;;;;;;;;5136896;27;20943;-64
2022/08/13 13:40:45;;;;;;;5.93;4.10;;;;;;;;;;5137140;27;20470;-64
2022/08/13 13:43:13;;;;;;;7.77;3.60;;;;;;;;;;5136550;27;20526;-64
2022/08/13 13:45:40;;;;;;;4.43;3.73;;;;;;;;;;5136243;27;20813;-64
2022/08/13 13:48:22;;;;;;;3.53;3.23;;;;;;;;;;5136761;27;20451;-64
2022/08/13 13:50:49;;;;;;;7.00;4.20;;;;;;;;;;5136964;27;20434;-64
2022/08/13 13:53:16;;;;;;;5.20;4.70;;;;;;;;;;5136406;27;20446;-64
2022/08/13 13:55:44;;;;;;;4.70;3.70;;;;;;;;;;5137302;27;20456;-65
2022/08/13 13:58:11;;;;;;;4.73;3.70;;;;;;;;;;5136474;27;20580;-65
2022/08/13 14:00:39;;;;;;;4.00;3.60;;;;;;;;;;5136712;27;20434;-69
2022/08/13 14:03:06;;;;;;;4.03;3.73;;;;;;;;;;5136802;27;20546;-66
2022/08/13 14:05:38;;;;;;;4.03;3.83;;;;;;;;;;5136252;27;20433;-67
2022/08/13 14:08:07;;;;;;;5.30;4.10;;;;;;;;;;5136150;27;20436;-66
2022/08/13 14:10:34;;;;;;;3.90;3.60;;;;;;;;;;5136512;27;20451;-66
2022/08/13 14:13:02;;;;;;;3.53;3.27;;;;;;;;;;5136242;27;20487;-68
2022/08/13 14:15:33;;;;;;;5.60;4.23;;;;;;;;;;5135743;27;21042;-65
2022/08/13 14:18:01;;;;;;;4.40;4.00;;;;;;;;;;5136401;27;20814;-66
2022/08/13 14:20:28;;;;;;;3.93;3.63;;;;;;;;;;5135822;27;20524;-66
2022/08/13 14:22:57;;;;;;;4.80;4.40;;;;;;;;;;5135992;27;20440;-66
2022/08/13 14:25:24;;;;;;;8.43;4.03;;;;;;;;;;5135665;27;20445;-65
2022/08/13 14:27:52;;;;;;;4.03;3.63;;;;;;;;;;5135976;27;20447;-66
2022/08/13 14:30:19;;;;;;;4.77;4.37;;;;;;;;;;5136140;27;20443;-66
2022/08/13 14:32:46;;;;;;;4.60;4.30;;;;;;;;;;5136306;27;20441;-67
2022/08/13 14:35:14;;;;;;;6.93;4.33;;;;;;;;;;5136324;27;20775;-66
2022/08/13 14:37:43;;;;;;;6.97;6.37;;;;;;;;;;5135943;27;20473;-66
2022/08/13 14:40:14;;;;;;;8.33;7.60;;;;;;;;;;5135573;27;20534;-66
2022/08/13 14:42:43;;;;;;;7.20;6.60;;;;;;;;;;5135710;27;20461;-66
2022/08/13 14:47:57;;;;;;;25.40;19.60;;;;;;;;;;5135923;27;20443;-66
2022/08/13 14:50:25;;;;;;;14.10;11.13;;;;;;;;;;5135835;27;20541;-67
2022/08/13 14:52:52;;;;;;;4.53;4.23;;;;;;;;;;5135855;27;20502;-67
2022/08/13 14:55:22;;;;;;;11.50;8.67;;;;;;;;;;5135727;27;20447;-67
2022/08/13 14:57:49;;;;;;;19.40;17.40;;;;;;;;;;5135278;27;20466;-66
2022/08/13 15:00:17;;;;;;;6.13;5.30;;;;;;;;;;5135298;27;21022;-66
2022/08/13 15:02:44;;;;;;;15.83;13.97;;;;;;;;;;5135702;27;20880;-66
2022/08/13 15:05:13;;;;;;;20.63;15.57;;;;;;;;;;5135839;27;20862;-67
2022/08/13 15:07:42;;;;;;;21.33;17.90;;;;;;;;;;5135223;27;20442;-66
2022/08/13 15:10:10;;;;;;;4.80;4.30;;;;;;;;;;5134681;27;20434;-66
2022/08/13 15:12:40;;;;;;;26.90;24.07;;;;;;;;;;5135154;27;20445;-67
2022/08/13 15:15:08;;;;;;;9.47;8.50;;;;;;;;;;5113905;28;20477;-66
2022/08/13 15:17:35;;;;;;;8.50;6.27;;;;;;;;;;5114222;28;20970;-66
2022/08/13 15:20:04;;;;;;;6.20;5.50;;;;;;;;;;5114319;28;20443;-66